createdAt,value
2023-01-04T00:01:50.247Z,101879.84
2023-01-04T00:04:16.754Z,101871.97
2023-01-04T00:06:43.417Z,101871.06
2023-01-04T00:09:09.826Z,101858.00
2023-01-04T00:11:36.260Z,101837.88
2023-01-04T00:14:02.944Z,101837.53
2023-01-04T00:16:29.999Z,101837.00
2023-01-04T00:18:57.370Z,101835.41
2023-01-04T00:21:27.014Z,101826.38
2023-01-04T00:23:55.161Z,101826.13
2023-01-04T00:26:35.228Z,101819.09
2023-01-04T00:29:05.490Z,101809.84
2023-01-04T00:31:32.699Z,101802.69
2023-01-04T00:34:01.903Z,101792.72
2023-01-04T00:36:28.884Z,101783.13
2023-01-04T00:39:08.408Z,101780.09
2023-01-04T00:41:57.930Z,101779.97
2023-01-04T00:44:21.921Z,101789.09
2023-01-04T00:46:48.731Z,101787.06
2023-01-04T00:49:15.191Z,101784.28
2023-01-04T00:51:42.186Z,101786.47
2023-01-04T00:54:13.694Z,101782.25
2023-01-04T00:56:40.102Z,101786.22
2023-01-04T00:59:06.580Z,101790.00
2023-01-04T01:01:34.302Z,101797.88
2023-01-04T01:04:02.916Z,101801.03
2023-01-04T01:06:31.039Z,101801.66
2023-01-04T01:08:58.216Z,101809.56
2023-01-04T01:11:25.301Z,101803.78
2023-01-04T01:13:52.366Z,101800.53
2023-01-04T01:16:44.282Z,101806.25
2023-01-04T01:19:07.993Z,101803.25
2023-01-04T01:21:34.535Z,101797.53
2023-01-04T01:24:00.975Z,101793.50
2023-01-04T01:26:27.427Z,101795.69
2023-01-04T01:28:53.852Z,101786.50
2023-01-04T01:31:28.236Z,101787.53
2023-01-04T01:33:56.288Z,101776.28
2023-01-04T01:36:25.232Z,101762.13
2023-01-04T01:38:51.817Z,101761.16
2023-01-04T01:41:32.214Z,101753.03
2023-01-04T01:44:02.051Z,101737.94
2023-01-04T01:46:38.617Z,101724.44
2023-01-04T01:49:13.083Z,101707.75
2023-01-04T01:51:41.466Z,101697.09
2023-01-04T01:54:13.326Z,101685.81
2023-01-04T01:56:42.422Z,101680.66
2023-01-04T01:59:11.072Z,101672.22
2023-01-04T02:01:37.659Z,101669.28
2023-01-04T02:04:05.443Z,101664.78
2023-01-04T02:06:40.690Z,101651.78
2023-01-04T02:09:08.139Z,101652.94
2023-01-04T02:11:34.544Z,101653.56
2023-01-04T02:14:22.090Z,101649.28
2023-01-04T02:17:10.110Z,101640.09
2023-01-04T02:20:06.995Z,101648.03
2023-01-04T02:22:52.049Z,101642.88
2023-01-04T02:25:39.795Z,101636.88
2023-01-04T02:28:38.992Z,101638.44
2023-01-04T02:31:21.538Z,101642.22
2023-01-04T02:34:12.039Z,101640.91
2023-01-04T02:37:03.806Z,101636.09
2023-01-04T02:40:05.133Z,101624.22
2023-01-04T02:43:19.179Z,101605.22
2023-01-04T02:45:54.211Z,101595.44
2023-01-04T02:48:38.992Z,101589.22
2023-01-04T02:51:05.598Z,101584.50
2023-01-04T02:53:37.338Z,101590.38
2023-01-04T02:56:06.736Z,101579.38
2023-01-04T02:58:51.776Z,101571.09
2023-01-04T03:01:55.276Z,101559.69
2023-01-04T03:05:06.554Z,101552.56
2023-01-04T03:07:35.768Z,101545.31
2023-01-04T03:10:32.872Z,101548.50
2023-01-04T03:13:28.329Z,101536.59
2023-01-04T03:16:01.212Z,101531.09
2023-01-04T03:18:31.879Z,101529.41
2023-01-04T03:21:01.314Z,101528.06
2023-01-04T03:23:51.000Z,101517.34
2023-01-04T03:26:41.734Z,101514.44
2023-01-04T03:29:36.495Z,101506.28
2023-01-04T03:32:27.323Z,101491.75
2023-01-04T03:35:13.561Z,101498.88
2023-01-04T03:37:51.452Z,101507.06
2023-01-04T03:40:39.753Z,101479.63
2023-01-04T03:43:31.589Z,101479.72
2023-01-04T03:46:21.005Z,101465.50
2023-01-04T03:48:57.483Z,101455.19
2023-01-04T03:51:29.681Z,101451.81
2023-01-04T03:54:05.855Z,101436.78
2023-01-04T03:56:35.598Z,101438.19
2023-01-04T03:59:02.275Z,101437.69
2023-01-04T04:01:29.126Z,101423.81
2023-01-04T04:04:14.803Z,101424.91
2023-01-04T04:07:00.070Z,101410.75
2023-01-04T04:09:26.495Z,101399.38
2023-01-04T04:11:52.933Z,101387.44
2023-01-04T04:14:19.377Z,101383.69
2023-01-04T04:16:45.918Z,101367.78
2023-01-04T04:19:12.492Z,101364.94
2023-01-04T04:21:38.990Z,101359.31
2023-01-04T04:24:06.177Z,101365.25
2023-01-04T04:26:32.619Z,101362.13
2023-01-04T04:28:59.087Z,101356.69
2023-01-04T04:31:25.565Z,101354.81
2023-01-04T04:33:52.033Z,101343.66
2023-01-04T04:36:18.495Z,101335.44
2023-01-04T04:38:44.919Z,101333.53
2023-01-04T04:41:32.354Z,101318.91
2023-01-04T04:43:59.175Z,101323.91
2023-01-04T04:46:25.729Z,101318.56
2023-01-04T04:48:52.235Z,101303.00
2023-01-04T04:51:18.872Z,101299.78
2023-01-04T04:53:45.651Z,101285.00
2023-01-04T04:56:12.342Z,101290.72
2023-01-04T04:58:38.882Z,101287.41
2023-01-04T05:01:06.038Z,101280.06
2023-01-04T05:03:33.278Z,101275.63
2023-01-04T05:06:00.029Z,101263.06
2023-01-04T05:08:26.691Z,101258.84
2023-01-04T05:10:53.190Z,101262.25
2023-01-04T05:13:19.678Z,101254.13
2023-01-04T05:15:49.054Z,101248.47
2023-01-04T05:18:18.149Z,101241.84
2023-01-04T05:20:45.160Z,101239.91
2023-01-04T05:23:13.725Z,101237.00
2023-01-04T05:25:40.443Z,101226.03
2023-01-04T05:28:08.393Z,101226.34
2023-01-04T05:30:53.652Z,101220.13
2023-01-04T05:33:28.227Z,101215.78
2023-01-04T05:35:55.768Z,101207.53
2023-01-04T05:38:22.793Z,101202.72
2023-01-04T05:40:50.388Z,101197.88
2023-01-04T05:43:18.544Z,101196.66
2023-01-04T05:45:49.003Z,101190.09
2023-01-04T05:48:15.984Z,101184.50
2023-01-04T05:50:42.570Z,101186.09
2023-01-04T05:53:09.040Z,101179.38
2023-01-04T05:55:35.481Z,101173.69
2023-01-04T05:58:01.945Z,101162.06
2023-01-04T06:00:28.778Z,101161.75
2023-01-04T06:02:56.997Z,101151.97
2023-01-04T06:05:25.016Z,101147.56
2023-01-04T06:07:51.626Z,101137.50
2023-01-04T06:10:19.536Z,101124.69
2023-01-04T06:12:47.168Z,101119.06
2023-01-04T06:15:14.235Z,101111.00
2023-01-04T06:17:41.251Z,101111.31
2023-01-04T06:20:10.558Z,101114.72
2023-01-04T06:22:37.313Z,101110.28
2023-01-04T06:25:04.797Z,101109.97
2023-01-04T06:27:31.241Z,101105.84
2023-01-04T06:29:57.762Z,101105.56
2023-01-04T06:32:24.287Z,101100.16
2023-01-04T06:34:50.809Z,101092.31
2023-01-04T06:37:17.283Z,101081.75
2023-01-04T06:39:43.713Z,101078.28
2023-01-04T06:42:30.060Z,101070.19
2023-01-04T06:44:56.575Z,101051.47
2023-01-04T06:47:22.996Z,101041.88
2023-01-04T06:49:49.461Z,101034.34
2023-01-04T06:52:15.907Z,101030.81
2023-01-04T06:54:42.299Z,101030.69
2023-01-04T06:57:08.787Z,101030.25
2023-01-04T06:59:35.257Z,101018.09
2023-01-04T07:02:01.788Z,101014.13
2023-01-04T07:04:28.292Z,101009.31
2023-01-04T07:06:54.797Z,100999.72
2023-01-04T07:09:21.337Z,100991.72
2023-01-04T07:11:47.778Z,100996.03
2023-01-04T07:14:14.281Z,100980.53
2023-01-04T07:16:40.741Z,100972.25
2023-01-04T07:19:08.444Z,100974.47
2023-01-04T07:21:34.929Z,100941.69
2023-01-04T07:24:01.308Z,100935.94
2023-01-04T07:26:27.720Z,100936.78
2023-01-04T07:29:12.839Z,100931.03
2023-01-04T07:31:39.270Z,100923.97
2023-01-04T07:34:06.156Z,100925.91
2023-01-04T07:36:32.633Z,100913.94
2023-01-04T07:39:00.233Z,100904.66
2023-01-04T07:41:26.707Z,100900.81
2023-01-04T07:43:53.372Z,100907.88
2023-01-04T07:46:21.751Z,100903.22
2023-01-04T07:48:48.208Z,100895.88
2023-01-04T07:51:14.772Z,100904.03
2023-01-04T07:53:41.175Z,100887.88
2023-01-04T07:56:09.477Z,100879.53
2023-01-04T07:58:39.874Z,100878.91
2023-01-04T08:01:11.667Z,100872.81
2023-01-04T08:03:38.237Z,100877.16
2023-01-04T08:06:10.597Z,100864.00
2023-01-04T08:08:37.578Z,100871.72
2023-01-04T08:11:06.406Z,100858.44
2023-01-04T08:13:33.430Z,100859.03
2023-01-04T08:15:59.927Z,100847.03
2023-01-04T08:18:26.561Z,100844.03
2023-01-04T08:21:04.405Z,100844.81
2023-01-04T08:23:31.343Z,100842.88
2023-01-04T08:26:03.022Z,100830.09
2023-01-04T08:28:29.443Z,100830.72
2023-01-04T08:30:55.845Z,100830.56
2023-01-04T08:33:22.264Z,100809.91
2023-01-04T08:35:48.680Z,100820.00
2023-01-04T08:38:56.080Z,100812.44
2023-01-04T08:41:23.113Z,100817.09
2023-01-04T08:43:49.076Z,100805.09
2023-01-04T08:46:15.926Z,100798.34
2023-01-04T08:48:42.938Z,100797.56
2023-01-04T08:51:12.048Z,100784.28
2023-01-04T08:53:38.539Z,100775.47
2023-01-04T08:56:06.655Z,100788.13
2023-01-04T08:58:34.012Z,100779.81
2023-01-04T09:01:06.487Z,100782.81
2023-01-04T09:03:33.869Z,100773.38
2023-01-04T09:06:09.924Z,100773.53
2023-01-04T09:08:38.675Z,100761.38
2023-01-04T09:11:11.156Z,100756.06
2023-01-04T09:13:37.875Z,100742.78
2023-01-04T09:16:07.226Z,100743.06
2023-01-04T09:18:34.705Z,100750.28
2023-01-04T09:21:13.415Z,100739.56
2023-01-04T09:23:40.750Z,100733.13
2023-01-04T09:26:14.904Z,100720.19
2023-01-04T09:28:42.686Z,100711.22
2023-01-04T09:31:14.667Z,100706.69
2023-01-04T09:34:12.952Z,100713.44
2023-01-04T09:36:28.734Z,100693.88
2023-01-04T09:38:55.659Z,100707.50
2023-01-04T09:41:34.620Z,100702.72
2023-01-04T09:44:04.885Z,100701.75
2023-01-04T09:46:46.645Z,100693.22
2023-01-04T09:49:32.035Z,100683.94
2023-01-04T09:52:21.952Z,100679.75
2023-01-04T09:55:04.859Z,100674.31
2023-01-04T09:57:55.383Z,100662.91
2023-01-04T10:00:30.215Z,100648.28
2023-01-04T10:03:11.939Z,100655.06
2023-01-04T10:05:40.094Z,100644.50
2023-01-04T10:08:16.259Z,100646.06
2023-01-04T10:10:56.306Z,100629.88
2023-01-04T10:13:36.786Z,100623.28
2023-01-04T10:16:06.238Z,100633.09
2023-01-04T10:21:54.025Z,100605.03
2023-01-04T10:24:42.338Z,100600.97
2023-01-04T10:27:42.995Z,100622.59
2023-01-04T10:30:44.275Z,100611.09
2023-01-04T10:33:21.271Z,100600.38
2023-01-04T10:35:48.685Z,100604.84
2023-01-04T10:38:28.007Z,100592.47
2023-01-04T10:40:57.841Z,100578.66
2023-01-04T10:44:10.989Z,100574.94
2023-01-04T10:46:45.447Z,100584.78
2023-01-04T10:49:23.141Z,100587.78
2023-01-04T10:52:15.721Z,100566.13
2023-01-04T10:54:55.054Z,100571.69
2023-01-04T10:57:37.013Z,100556.19
2023-01-04T11:00:21.866Z,100551.81
2023-01-04T11:03:12.325Z,100552.06
2023-01-04T11:05:54.305Z,100542.50
2023-01-04T11:08:23.247Z,100540.25
2023-01-04T11:11:08.187Z,100539.91
2023-01-04T11:13:35.336Z,100527.81
2023-01-04T11:16:05.359Z,100537.31
2023-01-04T11:18:35.383Z,100530.72
2023-01-04T11:21:06.396Z,100510.97
2023-01-04T11:23:32.796Z,100518.06
2023-01-04T11:26:05.932Z,100501.03
2023-01-04T11:28:45.933Z,100491.44
2023-01-04T11:31:23.167Z,100493.81
2023-01-04T11:33:57.193Z,100491.69
2023-01-04T11:36:34.609Z,100485.34
2023-01-04T11:39:01.147Z,100484.31
2023-01-04T11:41:28.081Z,100476.91
2023-01-04T11:44:05.183Z,100469.34
2023-01-04T11:46:33.915Z,100485.38
2023-01-04T11:49:00.418Z,100472.41
2023-01-04T11:51:26.834Z,100463.41
2023-01-04T11:53:57.571Z,100455.03
2023-01-04T11:56:26.515Z,100454.28
2023-01-04T11:59:20.924Z,100448.34
2023-01-04T12:02:10.817Z,100440.16
2023-01-04T12:04:37.457Z,100437.91
2023-01-04T12:07:13.822Z,100437.56
2023-01-04T12:09:40.299Z,100428.25
2023-01-04T12:12:12.348Z,100423.13
2023-01-04T12:14:48.236Z,100417.25
2023-01-04T12:17:38.056Z,100410.88
2023-01-04T12:20:21.003Z,100412.59
2023-01-04T12:22:47.800Z,100415.31
2023-01-04T12:25:23.509Z,100409.53
2023-01-04T12:27:51.810Z,100419.06
2023-01-04T12:30:37.315Z,100417.16
2023-01-04T12:33:31.715Z,100392.13
2023-01-04T12:36:04.056Z,100406.47
2023-01-04T12:39:05.017Z,100395.31
2023-01-04T12:41:34.202Z,100379.09
2023-01-04T12:44:02.057Z,100393.84
2023-01-04T12:46:46.984Z,100391.00
2023-01-04T12:49:28.494Z,100379.97
2023-01-04T12:52:31.948Z,100370.28
2023-01-04T12:55:02.881Z,100365.53
2023-01-04T12:57:37.894Z,100367.13
2023-01-04T13:00:16.291Z,100360.53
2023-01-04T13:02:48.049Z,100356.66
2023-01-04T13:08:11.230Z,100350.97
2023-01-04T13:10:49.931Z,100345.75
2023-01-04T13:13:34.544Z,100341.97
2023-01-04T13:16:20.228Z,100344.16
2023-01-04T13:18:50.413Z,100333.25
2023-01-04T13:21:25.832Z,100326.88
2023-01-04T13:23:55.604Z,100335.97
2023-01-04T13:26:28.089Z,100326.41
2023-01-04T13:29:15.878Z,100320.16
2023-01-04T13:31:50.156Z,100328.00
2023-01-04T13:34:21.727Z,100321.94
2023-01-04T13:36:56.801Z,100313.75
2023-01-04T13:39:24.199Z,100318.06
2023-01-04T13:41:52.817Z,100318.06
2023-01-04T13:47:44.912Z,100315.94
2023-01-04T13:50:31.283Z,100313.03
2023-01-04T13:53:08.196Z,100317.13
2023-01-04T13:55:37.907Z,100306.09
2023-01-04T13:58:07.466Z,100309.19
2023-01-04T14:00:45.131Z,100304.59
2023-01-04T14:03:25.142Z,100299.50
2023-01-04T14:05:59.887Z,100291.06
2023-01-04T14:08:38.622Z,100288.09
2023-01-04T14:11:15.770Z,100301.59
2023-01-04T14:13:48.075Z,100294.78
2023-01-04T14:16:15.288Z,100287.19
2023-01-04T14:18:41.864Z,100286.22
2023-01-04T14:21:17.545Z,100279.31
2023-01-04T14:23:44.121Z,100286.06
2023-01-04T14:26:30.369Z,100275.31
2023-01-04T14:28:56.795Z,100280.41
2023-01-04T14:31:28.096Z,100276.00
2023-01-04T14:33:55.121Z,100268.00
2023-01-04T14:36:28.055Z,100273.84
2023-01-04T14:38:57.026Z,100267.03
2023-01-04T14:41:31.362Z,100261.66
2023-01-04T14:44:00.785Z,100258.56
2023-01-04T14:46:32.080Z,100254.72
2023-01-04T14:48:58.944Z,100254.34
2023-01-04T14:51:38.039Z,100247.63
2023-01-04T14:54:06.477Z,100236.66
2023-01-04T14:56:33.802Z,100242.88
2023-01-04T14:59:00.668Z,100238.13
2023-01-04T15:01:28.221Z,100241.56
2023-01-04T15:03:54.725Z,100237.28
2023-01-04T15:06:21.181Z,100240.19
2023-01-04T15:08:48.634Z,100243.19
2023-01-04T15:11:15.750Z,100233.94
2023-01-04T15:13:42.198Z,100230.66
2023-01-04T15:16:12.623Z,100226.88
2023-01-04T15:18:40.382Z,100213.66
2023-01-04T15:21:06.968Z,100213.03
2023-01-04T15:23:33.475Z,100211.03
2023-01-04T15:26:01.751Z,100207.13
2023-01-04T15:28:28.256Z,100202.81
2023-01-04T15:30:54.785Z,100199.38
2023-01-04T15:33:21.208Z,100202.31
2023-01-04T15:35:47.773Z,100202.66
2023-01-04T15:38:18.441Z,100198.41
2023-01-04T15:40:45.148Z,100197.97
2023-01-04T15:43:11.937Z,100183.28
2023-01-04T15:45:39.859Z,100182.81
2023-01-04T15:48:09.479Z,100186.34
2023-01-04T15:50:38.645Z,100183.00
2023-01-04T15:53:09.534Z,100187.56
2023-01-04T15:55:37.493Z,100171.19
2023-01-04T15:58:05.751Z,100171.19
2023-01-04T16:00:32.878Z,100170.91
2023-01-04T16:02:59.429Z,100170.13
2023-01-04T16:05:26.085Z,100160.34
2023-01-04T16:07:52.548Z,100151.00
2023-01-04T16:10:19.051Z,100142.06
2023-01-04T16:12:49.855Z,100138.22
2023-01-04T16:15:21.549Z,100127.38
2023-01-04T16:17:48.862Z,100138.47
2023-01-04T16:20:17.957Z,100128.41
2023-01-04T16:22:44.855Z,100122.09
2023-01-04T16:25:12.375Z,100114.59
2023-01-04T16:27:39.678Z,100107.25
2023-01-04T16:30:09.308Z,100103.22
2023-01-04T16:32:36.473Z,100098.63
2023-01-04T16:35:03.461Z,100108.06
2023-01-04T16:37:30.621Z,100098.72
2023-01-04T16:40:06.216Z,100100.38
2023-01-04T16:42:33.701Z,100098.44
2023-01-04T16:45:00.272Z,100094.22
2023-01-04T16:47:26.721Z,100086.88
2023-01-04T16:49:53.539Z,100075.59
2023-01-04T16:52:20.221Z,100072.94
2023-01-04T16:54:46.702Z,100067.38
2023-01-04T16:57:13.153Z,100063.00
2023-01-04T16:59:39.695Z,100066.13
2023-01-04T17:02:06.385Z,100060.78
2023-01-04T17:04:33.048Z,100065.16
2023-01-04T17:06:59.707Z,100053.25
2023-01-04T17:09:26.230Z,100043.78
2023-01-04T17:14:49.112Z,100036.13
2023-01-04T17:17:23.819Z,100043.88
2023-01-04T17:19:50.301Z,100051.63
2023-01-04T17:22:16.933Z,100030.50
2023-01-04T17:24:43.408Z,100036.91
2023-01-04T17:27:10.724Z,100030.22
2023-01-04T17:29:37.203Z,100037.59
2023-01-04T17:32:03.894Z,100033.09
2023-01-04T17:34:30.385Z,100043.16
2023-01-04T17:36:56.858Z,100037.78
2023-01-04T17:39:23.315Z,100043.81
2023-01-04T17:41:49.859Z,100051.59
2023-01-04T17:44:16.312Z,100061.53
2023-01-04T17:46:43.294Z,100045.84
2023-01-04T17:49:31.866Z,100048.63
2023-01-04T17:51:59.116Z,100060.09
2023-01-04T17:54:26.750Z,100056.91
2023-01-04T17:56:53.261Z,100055.34
2023-01-04T17:59:19.753Z,100058.56
2023-01-04T18:01:46.193Z,100064.75
2023-01-04T18:04:13.007Z,100054.69
2023-01-04T18:06:39.877Z,100062.53
2023-01-04T18:09:08.081Z,100061.44
2023-01-04T18:11:35.757Z,100066.56
2023-01-04T18:14:05.834Z,100062.47
2023-01-04T18:16:56.215Z,100066.75
2023-01-04T18:19:29.045Z,100059.75
2023-01-04T18:21:56.614Z,100064.06
2023-01-04T18:24:39.298Z,100056.94
2023-01-04T18:27:25.505Z,100054.28
2023-01-04T18:29:53.765Z,100044.59
2023-01-04T18:32:20.853Z,100049.69
2023-01-04T18:34:47.438Z,100048.88
2023-01-04T18:37:15.624Z,100047.72
2023-01-04T18:39:42.139Z,100045.69
2023-01-04T18:42:08.609Z,100036.47
2023-01-04T18:44:35.981Z,100033.25
2023-01-04T18:47:03.635Z,100037.28
2023-01-04T18:49:30.243Z,100041.75
2023-01-04T18:51:56.960Z,100030.09
2023-01-04T18:54:23.501Z,100016.84
2023-01-04T18:56:51.288Z,100010.13
2023-01-04T18:59:19.787Z,99996.81
2023-01-04T19:01:46.540Z,100013.31
2023-01-04T19:04:16.068Z,100019.84
2023-01-04T19:06:42.967Z,100013.63
2023-01-04T19:09:09.537Z,100006.31
2023-01-04T19:11:36.181Z,100003.03
2023-01-04T19:14:03.557Z,100024.06
2023-01-04T19:16:31.480Z,100016.91
2023-01-04T19:19:01.383Z,100026.66
2023-01-04T19:21:28.689Z,100029.09
2023-01-04T19:23:55.395Z,100026.34
2023-01-04T19:26:22.647Z,100032.50
2023-01-04T19:28:49.443Z,100046.47
2023-01-04T19:31:17.679Z,100038.31
2023-01-04T19:33:44.984Z,100040.91
2023-01-04T19:36:13.337Z,100033.81
2023-01-04T19:38:40.386Z,100029.91
2023-01-04T19:41:07.913Z,100020.13
2023-01-04T19:43:35.271Z,100019.69
2023-01-04T19:46:01.839Z,100020.13
2023-01-04T19:48:28.753Z,100011.47
2023-01-04T19:51:21.254Z,100007.59
2023-01-04T19:53:47.734Z,100012.66
2023-01-04T19:56:16.129Z,100012.56
2023-01-04T19:58:42.945Z,100010.63
2023-01-04T20:01:18.535Z,100010.19
2023-01-04T20:03:45.405Z,100007.25
2023-01-04T20:06:13.160Z,100019.13
2023-01-04T20:08:40.567Z,100019.97
2023-01-04T20:11:08.605Z,100014.59
2023-01-04T20:13:35.569Z,100019.31
2023-01-04T20:16:04.920Z,100017.47
2023-01-04T20:18:32.252Z,100018.56
2023-01-04T20:20:59.084Z,100003.56
2023-01-04T20:23:25.955Z,100002.00
2023-01-04T20:25:54.072Z,100005.75
2023-01-04T20:28:23.862Z,99998.66
2023-01-04T20:31:04.164Z,99997.34
2023-01-04T20:33:30.865Z,99987.81
2023-01-04T20:35:57.606Z,99996.53
2023-01-04T20:38:24.463Z,99995.88
2023-01-04T20:40:50.889Z,99984.56
2023-01-04T20:43:36.283Z,99990.31
2023-01-04T20:46:08.893Z,99985.94
2023-01-04T20:48:35.357Z,99970.25
2023-01-04T20:51:06.977Z,99977.66
2023-01-04T20:53:33.868Z,99972.91
2023-01-04T20:56:08.519Z,99975.00
2023-01-04T20:58:35.321Z,99971.25
2023-01-04T21:01:04.218Z,99979.03
2023-01-04T21:03:30.893Z,99978.56
2023-01-04T21:06:00.963Z,99981.13
2023-01-04T21:08:27.422Z,99979.38
2023-01-04T21:10:53.875Z,99987.88
2023-01-04T21:13:20.370Z,99984.09
2023-01-04T21:15:46.850Z,99972.25
2023-01-04T21:18:13.551Z,99978.28
2023-01-04T21:20:43.749Z,99971.53
2023-01-04T21:23:21.863Z,99971.75
2023-01-04T21:25:51.873Z,99971.75
2023-01-04T21:28:21.185Z,99972.72
2023-01-04T21:30:49.508Z,99982.47
2023-01-04T21:33:16.393Z,99972.56
2023-01-04T21:35:43.148Z,99969.16
2023-01-04T21:38:11.264Z,99981.63
2023-01-04T21:40:39.733Z,99956.63
2023-01-04T21:43:07.139Z,99960.06
2023-01-04T21:45:38.334Z,99958.06
2023-01-04T21:48:04.978Z,99956.19
2023-01-04T21:50:32.135Z,99956.63
2023-01-04T21:53:00.017Z,99954.97
2023-01-04T21:55:32.402Z,99947.13
2023-01-04T21:58:00.818Z,99953.41
2023-01-04T22:00:27.289Z,99956.94
2023-01-04T22:02:53.856Z,99966.50
2023-01-04T22:05:20.417Z,99998.38
2023-01-04T22:07:46.931Z,100006.06
2023-01-04T22:10:13.392Z,100003.78
2023-01-04T22:12:40.081Z,99996.34
2023-01-04T22:15:07.213Z,100000.81
2023-01-04T22:17:33.628Z,99993.63
2023-01-04T22:20:00.169Z,99999.38
2023-01-04T22:22:29.352Z,99998.06
2023-01-04T22:24:55.718Z,99999.34
2023-01-04T22:27:22.126Z,99991.34
2023-01-04T22:29:48.516Z,99979.59
2023-01-04T22:32:14.984Z,99997.97
2023-01-04T22:34:42.038Z,99979.31
2023-01-04T22:37:08.442Z,99981.50
2023-01-04T22:39:34.833Z,99990.06
2023-01-04T22:42:01.267Z,99995.16
2023-01-04T22:44:27.669Z,99996.38
2023-01-04T22:46:54.188Z,100006.59
2023-01-04T22:49:20.614Z,100001.22
2023-01-04T22:51:47.029Z,100000.84
2023-01-04T22:54:13.621Z,100005.53
2023-01-04T22:56:40.104Z,100008.50
2023-01-04T22:59:06.492Z,100011.34
2023-01-04T23:01:34.156Z,100003.88
2023-01-04T23:04:01.891Z,99999.41
2023-01-04T23:06:30.598Z,100007.53
2023-01-04T23:09:07.844Z,99992.56
2023-01-04T23:11:35.483Z,100007.16
2023-01-04T23:14:03.802Z,99993.81
2023-01-04T23:16:32.958Z,99996.03
2023-01-04T23:19:01.874Z,100001.22
2023-01-04T23:21:28.941Z,99987.38
2023-01-04T23:23:55.438Z,99986.03
2023-01-04T23:26:23.724Z,99995.31
2023-01-04T23:28:50.847Z,99976.63
2023-01-04T23:31:23.533Z,99979.63
2023-01-04T23:33:58.284Z,99974.25
2023-01-04T23:36:27.813Z,99974.44
2023-01-04T23:39:00.745Z,99986.81
2023-01-04T23:41:46.290Z,99988.00
2023-01-04T23:44:15.916Z,99997.69
2023-01-04T23:46:42.546Z,100003.22
2023-01-04T23:49:09.648Z,100000.78
2023-01-04T23:51:36.062Z,100000.84
2023-01-04T23:54:02.442Z,100000.06
2023-01-04T23:56:30.181Z,100007.25
2023-01-04T23:58:56.545Z,100005.53
